sensor_id;sensor_type;location;lat;lon;timestamp;P1;durP1;ratioP1;P2;durP2;ratioP2
13114;SDS011;6623;52.120;8.660;2023-04-07T00:01:19;7.97;;;6.70;;
13114;SDS011;6623;52.120;8.660;2023-04-07T00:03:45;8.57;;;6.40;;
13114;SDS011;6623;52.120;8.660;2023-04-07T00:06:11;7.97;;;6.77;;
13114;SDS011;6623;52.120;8.660;2023-04-07T00:08:36;9.07;;;6.77;;
13114;SDS011;6623;52.120;8.660;2023-04-07T00:11:02;9.23;;;6.60;;
13114;SDS011;6623;52.120;8.660;2023-04-07T00:13:28;8.50;;;6.70;;
13114;SDS011;6623;52.120;8.660;2023-04-07T00:15:54;9.43;;;6.87;;
13114;SDS011;6623;52.120;8.660;2023-04-07T00:18:19;9.93;;;6.83;;
13114;SDS011;6623;52.120;8.660;2023-04-07T00:20:45;8.43;;;6.60;;
13114;SDS011;6623;52.120;8.660;2023-04-07T00:23:10;10.13;;;7.23;;
13114;SDS011;6623;52.120;8.660;2023-04-07T00:25:36;7.80;;;6.90;;
13114;SDS011;6623;52.120;8.660;2023-04-07T00:28:01;9.03;;;6.50;;
13114;SDS011;6623;52.120;8.660;2023-04-07T00:30:27;8.43;;;6.40;;
13114;SDS011;6623;52.120;8.660;2023-04-07T00:32:53;6.23;;;5.63;;
13114;SDS011;6623;52.120;8.660;2023-04-07T00:35:18;6.73;;;5.70;;
13114;SDS011;6623;52.120;8.660;2023-04-07T00:37:44;7.33;;;6.20;;
13114;SDS011;6623;52.120;8.660;2023-04-07T00:40:10;6.67;;;5.97;;
13114;SDS011;6623;52.120;8.660;2023-04-07T00:42:35;6.83;;;6.13;;
13114;SDS011;6623;52.120;8.660;2023-04-07T00:45:01;7.23;;;5.77;;
13114;SDS011;6623;52.120;8.660;2023-04-07T00:47:27;7.90;;;6.40;;
13114;SDS011;6623;52.120;8.660;2023-04-07T00:49:52;7.00;;;6.17;;
13114;SDS011;6623;52.120;8.660;2023-04-07T00:52:21;8.30;;;6.70;;
13114;SDS011;6623;52.120;8.660;2023-04-07T00:54:53;8.73;;;6.10;;
13114;SDS011;6623;52.120;8.660;2023-04-07T00:57:19;7.90;;;6.23;;
13114;SDS011;6623;52.120;8.660;2023-04-07T00:59:46;7.37;;;6.53;;
13114;SDS011;6623;52.120;8.660;2023-04-07T01:02:32;6.83;;;6.00;;
13114;SDS011;6623;52.120;8.660;2023-04-07T01:08:23;7.27;;;6.40;;
13114;SDS011;6623;52.120;8.660;2023-04-07T01:13:45;7.13;;;5.87;;
13114;SDS011;6623;52.120;8.660;2023-04-07T01:16:23;6.93;;;6.10;;
13114;SDS011;6623;52.120;8.660;2023-04-07T01:18:55;6.00;;;5.40;;
13114;SDS011;6623;52.120;8.660;2023-04-07T01:21:25;6.57;;;5.70;;
13114;SDS011;6623;52.120;8.660;2023-04-07T01:27:04;5.63;;;5.03;;
13114;SDS011;6623;52.120;8.660;2023-04-07T01:29:37;6.20;;;4.93;;
13114;SDS011;6623;52.120;8.660;2023-04-07T01:32:11;5.63;;;4.97;;
13114;SDS011;6623;52.120;8.660;2023-04-07T01:34:38;5.90;;;4.67;;
13114;SDS011;6623;52.120;8.660;2023-04-07T01:37:05;7.30;;;5.00;;
13114;SDS011;6623;52.120;8.660;2023-04-07T01:39:32;6.20;;;5.03;;
13114;SDS011;6623;52.120;8.660;2023-04-07T01:41:59;5.53;;;4.60;;
13114;SDS011;6623;52.120;8.660;2023-04-07T01:44:26;5.33;;;4.63;;
13114;SDS011;6623;52.120;8.660;2023-04-07T01:46:54;5.93;;;4.67;;
13114;SDS011;6623;52.120;8.660;2023-04-07T01:49:20;5.97;;;4.93;;
13114;SDS011;6623;52.120;8.660;2023-04-07T01:51:46;5.60;;;5.03;;
13114;SDS011;6623;52.120;8.660;2023-04-07T01:54:14;6.10;;;4.63;;
13114;SDS011;6623;52.120;8.660;2023-04-07T01:56:41;5.77;;;5.17;;
13114;SDS011;6623;52.120;8.660;2023-04-07T01:59:08;6.57;;;5.60;;
13114;SDS011;6623;52.120;8.660;2023-04-07T02:01:33;6.07;;;5.37;;
13114;SDS011;6623;52.120;8.660;2023-04-07T02:04:13;5.67;;;4.80;;
13114;SDS011;6623;52.120;8.660;2023-04-07T02:06:43;7.70;;;5.60;;
13114;SDS011;6623;52.120;8.660;2023-04-07T02:09:15;8.13;;;6.27;;
13114;SDS011;6623;52.120;8.660;2023-04-07T02:11:42;6.50;;;5.80;;
13114;SDS011;6623;52.120;8.660;2023-04-07T02:14:10;7.53;;;6.00;;
13114;SDS011;6623;52.120;8.660;2023-04-07T02:16:36;6.43;;;5.83;;
13114;SDS011;6623;52.120;8.660;2023-04-07T02:19:03;7.73;;;5.83;;
13114;SDS011;6623;52.120;8.660;2023-04-07T02:21:29;7.63;;;6.10;;
13114;SDS011;6623;52.120;8.660;2023-04-07T02:24:01;6.77;;;6.07;;
13114;SDS011;6623;52.120;8.660;2023-04-07T02:26:33;7.03;;;6.33;;
13114;SDS011;6623;52.120;8.660;2023-04-07T02:29:00;7.73;;;6.20;;
13114;SDS011;6623;52.120;8.660;2023-04-07T02:31:26;7.70;;;6.30;;
13114;SDS011;6623;52.120;8.660;2023-04-07T02:33:51;9.07;;;7.27;;
13114;SDS011;6623;52.120;8.660;2023-04-07T02:36:17;7.00;;;6.30;;
13114;SDS011;6623;52.120;8.660;2023-04-07T02:38:42;7.57;;;6.77;;
13114;SDS011;6623;52.120;8.660;2023-04-07T02:41:08;8.07;;;6.67;;
13114;SDS011;6623;52.120;8.660;2023-04-07T02:43:33;7.90;;;6.97;;
13114;SDS011;6623;52.120;8.660;2023-04-07T02:45:59;8.93;;;6.83;;
13114;SDS011;6623;52.120;8.660;2023-04-07T02:48:25;9.10;;;6.90;;
13114;SDS011;6623;52.120;8.660;2023-04-07T02:50:50;8.83;;;7.30;;
13114;SDS011;6623;52.120;8.660;2023-04-07T02:53:16;9.43;;;7.40;;
13114;SDS011;6623;52.120;8.660;2023-04-07T02:55:41;10.27;;;7.77;;
13114;SDS011;6623;52.120;8.660;2023-04-07T02:58:07;8.07;;;7.27;;
13114;SDS011;6623;52.120;8.660;2023-04-07T03:00:33;8.50;;;7.20;;
13114;SDS011;6623;52.120;8.660;2023-04-07T03:02:58;10.27;;;7.50;;
13114;SDS011;6623;52.120;8.660;2023-04-07T03:05:25;8.43;;;7.03;;
13114;SDS011;6623;52.120;8.660;2023-04-07T03:07:51;11.03;;;7.60;;
13114;SDS011;6623;52.120;8.660;2023-04-07T03:10:16;10.73;;;8.10;;
13114;SDS011;6623;52.120;8.660;2023-04-07T03:12:42;9.37;;;7.67;;
13114;SDS011;6623;52.120;8.660;2023-04-07T03:15:08;10.93;;;7.83;;
13114;SDS011;6623;52.120;8.660;2023-04-07T03:17:34;10.27;;;7.80;;
13114;SDS011;6623;52.120;8.660;2023-04-07T03:20:00;9.37;;;8.23;;
13114;SDS011;6623;52.120;8.660;2023-04-07T03:22:25;8.63;;;7.73;;
13114;SDS011;6623;52.120;8.660;2023-04-07T03:24:51;11.07;;;8.30;;
13114;SDS011;6623;52.120;8.660;2023-04-07T03:27:17;9.73;;;8.73;;
13114;SDS011;6623;52.120;8.660;2023-04-07T03:29:44;9.90;;;8.20;;
13114;SDS011;6623;52.120;8.660;2023-04-07T03:32:09;9.33;;;8.23;;
13114;SDS011;6623;52.120;8.660;2023-04-07T03:34:35;9.27;;;8.27;;
13114;SDS011;6623;52.120;8.660;2023-04-07T03:37:00;11.63;;;8.20;;
13114;SDS011;6623;52.120;8.660;2023-04-07T03:39:26;11.60;;;9.13;;
13114;SDS011;6623;52.120;8.660;2023-04-07T03:41:51;10.67;;;8.80;;
13114;SDS011;6623;52.120;8.660;2023-04-07T03:44:17;9.53;;;8.37;;
13114;SDS011;6623;52.120;8.660;2023-04-07T03:46:45;10.00;;;8.83;;
13114;SDS011;6623;52.120;8.660;2023-04-07T03:49:12;13.63;;;9.50;;
13114;SDS011;6623;52.120;8.660;2023-04-07T03:51:38;10.57;;;8.77;;
13114;SDS011;6623;52.120;8.660;2023-04-07T03:54:03;10.53;;;9.17;;
13114;SDS011;6623;52.120;8.660;2023-04-07T03:56:29;10.50;;;9.10;;
13114;SDS011;6623;52.120;8.660;2023-04-07T03:58:55;10.97;;;9.00;;
13114;SDS011;6623;52.120;8.660;2023-04-07T04:01:20;10.23;;;8.70;;
13114;SDS011;6623;52.120;8.660;2023-04-07T04:03:46;11.03;;;9.10;;
13114;SDS011;6623;52.120;8.660;2023-04-07T04:06:13;12.30;;;9.60;;
13114;SDS011;6623;52.120;8.660;2023-04-07T04:08:38;12.10;;;9.00;;
13114;SDS011;6623;52.120;8.660;2023-04-07T04:11:04;11.23;;;10.00;;
13114;SDS011;6623;52.120;8.660;2023-04-07T04:13:29;11.03;;;9.43;;
13114;SDS011;6623;52.120;8.660;2023-04-07T04:15:56;11.03;;;9.67;;
13114;SDS011;6623;52.120;8.660;2023-04-07T04:18:21;10.50;;;9.03;;
13114;SDS011;6623;52.120;8.660;2023-04-07T04:20:47;12.13;;;10.00;;
13114;SDS011;6623;52.120;8.660;2023-04-07T04:23:13;12.07;;;9.37;;
13114;SDS011;6623;52.120;8.660;2023-04-07T04:25:39;10.97;;;9.50;;
13114;SDS011;6623;52.120;8.660;2023-04-07T04:28:05;12.63;;;9.90;;
13114;SDS011;6623;52.120;8.660;2023-04-07T04:30:30;11.53;;;9.90;;
13114;SDS011;6623;52.120;8.660;2023-04-07T04:32:56;11.30;;;9.00;;
13114;SDS011;6623;52.120;8.660;2023-04-07T04:35:22;11.67;;;9.67;;
13114;SDS011;6623;52.120;8.660;2023-04-07T04:37:47;12.53;;;9.73;;
13114;SDS011;6623;52.120;8.660;2023-04-07T04:40:13;12.53;;;9.90;;
13114;SDS011;6623;52.120;8.660;2023-04-07T04:42:39;12.67;;;10.07;;
13114;SDS011;6623;52.120;8.660;2023-04-07T04:45:05;13.30;;;9.70;;
13114;SDS011;6623;52.120;8.660;2023-04-07T04:47:31;11.37;;;10.10;;
13114;SDS011;6623;52.120;8.660;2023-04-07T04:49:57;12.40;;;9.97;;
13114;SDS011;6623;52.120;8.660;2023-04-07T04:52:22;12.33;;;10.30;;
13114;SDS011;6623;52.120;8.660;2023-04-07T04:54:48;11.87;;;9.47;;
13114;SDS011;6623;52.120;8.660;2023-04-07T04:57:13;14.07;;;10.33;;
13114;SDS011;6623;52.120;8.660;2023-04-07T04:59:40;11.20;;;10.00;;
13114;SDS011;6623;52.120;8.660;2023-04-07T05:02:06;11.80;;;10.07;;
13114;SDS011;6623;52.120;8.660;2023-04-07T05:04:32;13.40;;;11.00;;
13114;SDS011;6623;52.120;8.660;2023-04-07T05:06:57;13.30;;;10.47;;
13114;SDS011;6623;52.120;8.660;2023-04-07T05:09:23;12.13;;;9.87;;
13114;SDS011;6623;52.120;8.660;2023-04-07T05:11:48;12.50;;;10.63;;
13114;SDS011;6623;52.120;8.660;2023-04-07T05:14:14;11.93;;;9.73;;
13114;SDS011;6623;52.120;8.660;2023-04-07T05:16:40;12.97;;;10.53;;
13114;SDS011;6623;52.120;8.660;2023-04-07T05:19:05;12.70;;;10.00;;
13114;SDS011;6623;52.120;8.660;2023-04-07T05:21:31;13.13;;;10.20;;
13114;SDS011;6623;52.120;8.660;2023-04-07T05:23:56;11.40;;;10.10;;
13114;SDS011;6623;52.120;8.660;2023-04-07T05:26:22;11.93;;;9.83;;
13114;SDS011;6623;52.120;8.660;2023-04-07T05:28:48;12.47;;;10.00;;
13114;SDS011;6623;52.120;8.660;2023-04-07T05:31:13;12.07;;;10.00;;
13114;SDS011;6623;52.120;8.660;2023-04-07T05:33:39;11.33;;;9.87;;
13114;SDS011;6623;52.120;8.660;2023-04-07T05:36:05;11.70;;;9.60;;
13114;SDS011;6623;52.120;8.660;2023-04-07T05:38:30;11.53;;;9.97;;
13114;SDS011;6623;52.120;8.660;2023-04-07T05:40:56;10.50;;;9.30;;
13114;SDS011;6623;52.120;8.660;2023-04-07T05:43:21;10.97;;;9.50;;
13114;SDS011;6623;52.120;8.660;2023-04-07T05:45:47;10.73;;;8.70;;
13114;SDS011;6623;52.120;8.660;2023-04-07T05:48:12;10.47;;;8.70;;
13114;SDS011;6623;52.120;8.660;2023-04-07T05:50:38;9.90;;;8.40;;
13114;SDS011;6623;52.120;8.660;2023-04-07T05:53:03;10.90;;;8.70;;
13114;SDS011;6623;52.120;8.660;2023-04-07T05:55:29;10.50;;;8.67;;
13114;SDS011;6623;52.120;8.660;2023-04-07T05:57:55;8.83;;;7.87;;
13114;SDS011;6623;52.120;8.660;2023-04-07T06:00:21;10.37;;;8.53;;
13114;SDS011;6623;52.120;8.660;2023-04-07T06:02:46;9.40;;;7.50;;
13114;SDS011;6623;52.120;8.660;2023-04-07T06:05:12;8.17;;;7.07;;
13114;SDS011;6623;52.120;8.660;2023-04-07T06:07:37;7.63;;;6.83;;
13114;SDS011;6623;52.120;8.660;2023-04-07T06:10:03;8.60;;;7.43;;
13114;SDS011;6623;52.120;8.660;2023-04-07T06:12:29;8.63;;;7.57;;
13114;SDS011;6623;52.120;8.660;2023-04-07T06:14:54;8.80;;;7.27;;
13114;SDS011;6623;52.120;8.660;2023-04-07T06:17:20;9.10;;;7.53;;
13114;SDS011;6623;52.120;8.660;2023-04-07T06:19:46;9.43;;;7.57;;
13114;SDS011;6623;52.120;8.660;2023-04-07T06:22:12;8.73;;;7.83;;
13114;SDS011;6623;52.120;8.660;2023-04-07T06:24:38;7.70;;;6.90;;
13114;SDS011;6623;52.120;8.660;2023-04-07T06:27:03;7.83;;;7.03;;
13114;SDS011;6623;52.120;8.660;2023-04-07T06:29:29;8.87;;;7.40;;
13114;SDS011;6623;52.120;8.660;2023-04-07T06:31:56;7.63;;;6.60;;
13114;SDS011;6623;52.120;8.660;2023-04-07T06:34:22;7.90;;;7.10;;
13114;SDS011;6623;52.120;8.660;2023-04-07T06:36:47;7.17;;;6.03;;
13114;SDS011;6623;52.120;8.660;2023-04-07T06:39:13;7.00;;;6.30;;
13114;SDS011;6623;52.120;8.660;2023-04-07T06:41:38;6.87;;;5.80;;
13114;SDS011;6623;52.120;8.660;2023-04-07T06:44:07;7.57;;;6.10;;
13114;SDS011;6623;52.120;8.660;2023-04-07T06:46:33;6.83;;;6.07;;
13114;SDS011;6623;52.120;8.660;2023-04-07T06:48:58;8.47;;;5.43;;
13114;SDS011;6623;52.120;8.660;2023-04-07T06:51:24;6.30;;;5.63;;
13114;SDS011;6623;52.120;8.660;2023-04-07T06:53:50;7.00;;;6.30;;
13114;SDS011;6623;52.120;8.660;2023-04-07T06:56:15;6.87;;;5.80;;
13114;SDS011;6623;52.120;8.660;2023-04-07T06:58:41;7.70;;;6.20;;
13114;SDS011;6623;52.120;8.660;2023-04-07T07:01:07;6.60;;;5.60;;
13114;SDS011;6623;52.120;8.660;2023-04-07T07:03:32;6.33;;;5.50;;
13114;SDS011;6623;52.120;8.660;2023-04-07T07:05:58;7.70;;;5.97;;
13114;SDS011;6623;52.120;8.660;2023-04-07T07:08:24;6.73;;;5.70;;
13114;SDS011;6623;52.120;8.660;2023-04-07T07:10:51;6.37;;;5.37;;
13114;SDS011;6623;52.120;8.660;2023-04-07T07:13:17;6.97;;;6.27;;
13114;SDS011;6623;52.120;8.660;2023-04-07T07:15:44;5.97;;;5.37;;
13114;SDS011;6623;52.120;8.660;2023-04-07T07:18:10;5.93;;;5.33;;
13114;SDS011;6623;52.120;8.660;2023-04-07T07:20:36;5.60;;;5.00;;
13114;SDS011;6623;52.120;8.660;2023-04-07T07:23:01;5.80;;;4.87;;
13114;SDS011;6623;52.120;8.660;2023-04-07T07:25:27;5.77;;;5.20;;
13114;SDS011;6623;52.120;8.660;2023-04-07T07:27:53;5.73;;;5.13;;
13114;SDS011;6623;52.120;8.660;2023-04-07T07:30:22;6.67;;;5.10;;
13114;SDS011;6623;52.120;8.660;2023-04-07T07:32:48;5.40;;;4.90;;
13114;SDS011;6623;52.120;8.660;2023-04-07T07:35:14;5.93;;;4.93;;
13114;SDS011;6623;52.120;8.660;2023-04-07T07:37:40;5.17;;;4.63;;
13114;SDS011;6623;52.120;8.660;2023-04-07T07:40:06;5.30;;;4.63;;
13114;SDS011;6623;52.120;8.660;2023-04-07T07:42:32;5.63;;;4.93;;
13114;SDS011;6623;52.120;8.660;2023-04-07T07:44:58;5.40;;;4.40;;
13114;SDS011;6623;52.120;8.660;2023-04-07T07:47:24;4.50;;;3.80;;
13114;SDS011;6623;52.120;8.660;2023-04-07T07:49:50;4.47;;;3.87;;
13114;SDS011;6623;52.120;8.660;2023-04-07T07:52:16;4.10;;;3.70;;
13114;SDS011;6623;52.120;8.660;2023-04-07T07:54:41;4.63;;;3.30;;
13114;SDS011;6623;52.120;8.660;2023-04-07T07:57:07;4.53;;;3.53;;
13114;SDS011;6623;52.120;8.660;2023-04-07T07:59:33;4.27;;;3.87;;
13114;SDS011;6623;52.120;8.660;2023-04-07T08:01:59;4.40;;;4.00;;
13114;SDS011;6623;52.120;8.660;2023-04-07T08:04:24;5.43;;;4.20;;
13114;SDS011;6623;52.120;8.660;2023-04-07T08:06:50;6.17;;;4.03;;
13114;SDS011;6623;52.120;8.660;2023-04-07T08:09:19;5.23;;;3.80;;
13114;SDS011;6623;52.120;8.660;2023-04-07T08:11:45;4.77;;;4.03;;
13114;SDS011;6623;52.120;8.660;2023-04-07T08:14:12;4.50;;;4.10;;
13114;SDS011;6623;52.120;8.660;2023-04-07T08:16:38;5.07;;;4.40;;
13114;SDS011;6623;52.120;8.660;2023-04-07T08:19:04;4.80;;;4.23;;
13114;SDS011;6623;52.120;8.660;2023-04-07T08:21:29;4.73;;;4.23;;
13114;SDS011;6623;52.120;8.660;2023-04-07T08:23:55;5.70;;;4.63;;
13114;SDS011;6623;52.120;8.660;2023-04-07T08:26:21;5.13;;;4.30;;
13114;SDS011;6623;52.120;8.660;2023-04-07T08:28:48;5.17;;;4.10;;
13114;SDS011;6623;52.120;8.660;2023-04-07T08:31:15;4.37;;;3.97;;
13114;SDS011;6623;52.120;8.660;2023-04-07T08:33:41;4.07;;;3.60;;
13114;SDS011;6623;52.120;8.660;2023-04-07T08:36:06;4.60;;;3.70;;
13114;SDS011;6623;52.120;8.660;2023-04-07T08:38:32;5.57;;;4.17;;
13114;SDS011;6623;52.120;8.660;2023-04-07T08:41:00;4.47;;;4.00;;
13114;SDS011;6623;52.120;8.660;2023-04-07T08:43:28;3.93;;;3.57;;
13114;SDS011;6623;52.120;8.660;2023-04-07T08:45:55;5.00;;;3.70;;
13114;SDS011;6623;52.120;8.660;2023-04-07T08:48:22;4.30;;;3.90;;
13114;SDS011;6623;52.120;8.660;2023-04-07T08:50:51;4.60;;;4.00;;
13114;SDS011;6623;52.120;8.660;2023-04-07T08:53:18;4.30;;;3.77;;
13114;SDS011;6623;52.120;8.660;2023-04-07T08:55:52;4.83;;;4.03;;
13114;SDS011;6623;52.120;8.660;2023-04-07T08:58:19;4.57;;;4.10;;
13114;SDS011;6623;52.120;8.660;2023-04-07T09:00:45;4.87;;;3.80;;
13114;SDS011;6623;52.120;8.660;2023-04-07T09:03:13;4.77;;;4.10;;
13114;SDS011;6623;52.120;8.660;2023-04-07T09:05:40;4.33;;;3.90;;
13114;SDS011;6623;52.120;8.660;2023-04-07T09:08:08;3.70;;;3.40;;
13114;SDS011;6623;52.120;8.660;2023-04-07T09:10:33;5.30;;;3.57;;
13114;SDS011;6623;52.120;8.660;2023-04-07T09:13:00;4.37;;;3.70;;
13114;SDS011;6623;52.120;8.660;2023-04-07T09:15:29;4.03;;;3.50;;
13114;SDS011;6623;52.120;8.660;2023-04-07T09:17:56;5.37;;;3.80;;
13114;SDS011;6623;52.120;8.660;2023-04-07T09:20:22;4.20;;;3.60;;
13114;SDS011;6623;52.120;8.660;2023-04-07T09:22:47;3.47;;;3.17;;
13114;SDS011;6623;52.120;8.660;2023-04-07T09:25:23;4.57;;;3.13;;
13114;SDS011;6623;52.120;8.660;2023-04-07T09:27:58;3.47;;;3.07;;
13114;SDS011;6623;52.120;8.660;2023-04-07T09:30:29;3.80;;;3.40;;
13114;SDS011;6623;52.120;8.660;2023-04-07T09:32:56;4.60;;;3.40;;
13114;SDS011;6623;52.120;8.660;2023-04-07T09:35:23;4.17;;;3.47;;
13114;SDS011;6623;52.120;8.660;2023-04-07T09:38:07;3.30;;;3.00;;
13114;SDS011;6623;52.120;8.660;2023-04-07T09:40:34;3.33;;;3.03;;
13114;SDS011;6623;52.120;8.660;2023-04-07T09:43:01;3.90;;;3.53;;
13114;SDS011;6623;52.120;8.660;2023-04-07T09:45:28;3.77;;;3.37;;
13114;SDS011;6623;52.120;8.660;2023-04-07T09:47:58;4.13;;;3.47;;
13114;SDS011;6623;52.120;8.660;2023-04-07T09:50:33;3.40;;;3.03;;
13114;SDS011;6623;52.120;8.660;2023-04-07T09:53:00;3.73;;;3.17;;
13114;SDS011;6623;52.120;8.660;2023-04-07T09:55:27;3.87;;;3.37;;
13114;SDS011;6623;52.120;8.660;2023-04-07T09:57:53;4.23;;;3.47;;
13114;SDS011;6623;52.120;8.660;2023-04-07T10:00:20;3.37;;;3.07;;
13114;SDS011;6623;52.120;8.660;2023-04-07T10:02:46;4.63;;;4.10;;
13114;SDS011;6623;52.120;8.660;2023-04-07T10:05:13;5.00;;;4.30;;
13114;SDS011;6623;52.120;8.660;2023-04-07T10:07:39;4.33;;;3.90;;
13114;SDS011;6623;52.120;8.660;2023-04-07T10:10:05;5.70;;;4.37;;
13114;SDS011;6623;52.120;8.660;2023-04-07T10:12:33;4.70;;;4.20;;
13114;SDS011;6623;52.120;8.660;2023-04-07T10:15:01;4.83;;;4.33;;
13114;SDS011;6623;52.120;8.660;2023-04-07T10:17:27;6.77;;;4.40;;
13114;SDS011;6623;52.120;8.660;2023-04-07T10:19:54;6.00;;;4.70;;
13114;SDS011;6623;52.120;8.660;2023-04-07T10:22:22;6.00;;;4.63;;
13114;SDS011;6623;52.120;8.660;2023-04-07T10:24:53;5.00;;;4.50;;
13114;SDS011;6623;52.120;8.660;2023-04-07T10:27:31;5.50;;;5.00;;
13114;SDS011;6623;52.120;8.660;2023-04-07T10:30:22;6.37;;;5.17;;
13114;SDS011;6623;52.120;8.660;2023-04-07T10:32:51;5.83;;;5.07;;
13114;SDS011;6623;52.120;8.660;2023-04-07T10:35:18;7.47;;;5.03;;
13114;SDS011;6623;52.120;8.660;2023-04-07T10:40:40;6.47;;;5.20;;
13114;SDS011;6623;52.120;8.660;2023-04-07T10:43:07;7.77;;;5.70;;
13114;SDS011;6623;52.120;8.660;2023-04-07T10:48:13;8.30;;;5.90;;
13114;SDS011;6623;52.120;8.660;2023-04-07T10:50:40;6.20;;;5.40;;
13114;SDS011;6623;52.120;8.660;2023-04-07T10:53:13;7.83;;;5.90;;
13114;SDS011;6623;52.120;8.660;2023-04-07T10:55:43;6.50;;;5.47;;
13114;SDS011;6623;52.120;8.660;2023-04-07T11:01:14;7.03;;;5.33;;
13114;SDS011;6623;52.120;8.660;2023-04-07T11:03:35;8.27;;;5.93;;
13114;SDS011;6623;52.120;8.660;2023-04-07T11:06:06;8.00;;;6.63;;
13114;SDS011;6623;52.120;8.660;2023-04-07T11:08:42;6.27;;;5.40;;
13114;SDS011;6623;52.120;8.660;2023-04-07T11:11:12;8.20;;;6.60;;
13114;SDS011;6623;52.120;8.660;2023-04-07T11:13:46;7.13;;;6.43;;
13114;SDS011;6623;52.120;8.660;2023-04-07T11:16:16;6.87;;;6.03;;
13114;SDS011;6623;52.120;8.660;2023-04-07T11:18:44;7.13;;;5.90;;
13114;SDS011;6623;52.120;8.660;2023-04-07T11:21:10;9.17;;;6.20;;
13114;SDS011;6623;52.120;8.660;2023-04-07T11:23:40;8.40;;;6.47;;
13114;SDS011;6623;52.120;8.660;2023-04-07T11:26:07;8.43;;;6.83;;
13114;SDS011;6623;52.120;8.660;2023-04-07T11:28:45;8.20;;;6.57;;
13114;SDS011;6623;52.120;8.660;2023-04-07T11:31:23;8.67;;;6.47;;
13114;SDS011;6623;52.120;8.660;2023-04-07T11:33:56;7.63;;;6.40;;
13114;SDS011;6623;52.120;8.660;2023-04-07T11:36:27;8.20;;;6.90;;
13114;SDS011;6623;52.120;8.660;2023-04-07T11:38:57;7.43;;;6.57;;
13114;SDS011;6623;52.120;8.660;2023-04-07T11:41:24;7.43;;;6.63;;
13114;SDS011;6623;52.120;8.660;2023-04-07T11:44:04;8.23;;;6.47;;
13114;SDS011;6623;52.120;8.660;2023-04-07T11:46:31;9.30;;;6.90;;
13114;SDS011;6623;52.120;8.660;2023-04-07T11:49:07;7.87;;;6.53;;
13114;SDS011;6623;52.120;8.660;2023-04-07T11:51:34;8.07;;;6.63;;
13114;SDS011;6623;52.120;8.660;2023-04-07T11:53:59;8.47;;;7.17;;
13114;SDS011;6623;52.120;8.660;2023-04-07T11:56:25;7.93;;;6.23;;
13114;SDS011;6623;52.120;8.660;2023-04-07T11:58:52;9.13;;;6.93;;
13114;SDS011;6623;52.120;8.660;2023-04-07T12:01:19;8.10;;;6.70;;
13114;SDS011;6623;52.120;8.660;2023-04-07T12:03:58;8.47;;;6.00;;
13114;SDS011;6623;52.120;8.660;2023-04-07T12:06:32;7.60;;;6.43;;
13114;SDS011;6623;52.120;8.660;2023-04-07T12:09:02;7.37;;;6.30;;
13114;SDS011;6623;52.120;8.660;2023-04-07T12:11:30;7.57;;;6.20;;
13114;SDS011;6623;52.120;8.660;2023-04-07T12:13:56;7.67;;;6.63;;
13114;SDS011;6623;52.120;8.660;2023-04-07T12:16:22;7.57;;;6.30;;
13114;SDS011;6623;52.120;8.660;2023-04-07T12:18:48;7.30;;;6.50;;
13114;SDS011;6623;52.120;8.660;2023-04-07T12:21:15;7.20;;;6.50;;
13114;SDS011;6623;52.120;8.660;2023-04-07T12:23:41;8.80;;;7.17;;
13114;SDS011;6623;52.120;8.660;2023-04-07T12:26:07;7.03;;;6.00;;
13114;SDS011;6623;52.120;8.660;2023-04-07T12:28:36;6.73;;;6.00;;
13114;SDS011;6623;52.120;8.660;2023-04-07T12:31:02;7.30;;;6.50;;
13114;SDS011;6623;52.120;8.660;2023-04-07T12:33:28;7.53;;;6.83;;
13114;SDS011;6623;52.120;8.660;2023-04-07T12:35:53;8.47;;;6.70;;
13114;SDS011;6623;52.120;8.660;2023-04-07T12:38:19;7.87;;;6.83;;
13114;SDS011;6623;52.120;8.660;2023-04-07T12:40:45;7.87;;;6.73;;
13114;SDS011;6623;52.120;8.660;2023-04-07T12:43:10;6.43;;;5.83;;
13114;SDS011;6623;52.120;8.660;2023-04-07T12:45:36;8.23;;;6.87;;
13114;SDS011;6623;52.120;8.660;2023-04-07T12:48:02;9.27;;;6.67;;
13114;SDS011;6623;52.120;8.660;2023-04-07T12:50:28;11.37;;;6.50;;
13114;SDS011;6623;52.120;8.660;2023-04-07T12:52:54;8.10;;;7.03;;
13114;SDS011;6623;52.120;8.660;2023-04-07T12:55:20;8.73;;;7.20;;
13114;SDS011;6623;52.120;8.660;2023-04-07T12:57:46;8.57;;;6.77;;
13114;SDS011;6623;52.120;8.660;2023-04-07T13:00:12;7.10;;;6.23;;
13114;SDS011;6623;52.120;8.660;2023-04-07T13:02:38;8.00;;;6.37;;
13114;SDS011;6623;52.120;8.660;2023-04-07T13:05:04;7.13;;;6.40;;
13114;SDS011;6623;52.120;8.660;2023-04-07T13:07:30;7.47;;;6.60;;
13114;SDS011;6623;52.120;8.660;2023-04-07T13:09:56;8.20;;;7.07;;
13114;SDS011;6623;52.120;8.660;2023-04-07T13:12:22;10.83;;;6.43;;
13114;SDS011;6623;52.120;8.660;2023-04-07T13:14:48;7.57;;;6.77;;
13114;SDS011;6623;52.120;8.660;2023-04-07T13:17:13;8.77;;;6.40;;
13114;SDS011;6623;52.120;8.660;2023-04-07T13:19:39;6.90;;;6.20;;
13114;SDS011;6623;52.120;8.660;2023-04-07T13:22:05;7.70;;;6.67;;
13114;SDS011;6623;52.120;8.660;2023-04-07T13:24:30;6.93;;;6.20;;
13114;SDS011;6623;52.120;8.660;2023-04-07T13:26:56;7.30;;;6.53;;
13114;SDS011;6623;52.120;8.660;2023-04-07T13:29:22;8.37;;;6.70;;
13114;SDS011;6623;52.120;8.660;2023-04-07T13:31:48;7.80;;;6.40;;
13114;SDS011;6623;52.120;8.660;2023-04-07T13:34:16;7.47;;;6.47;;
13114;SDS011;6623;52.120;8.660;2023-04-07T13:36:42;7.47;;;6.07;;
13114;SDS011;6623;52.120;8.660;2023-04-07T13:39:08;8.00;;;6.73;;
13114;SDS011;6623;52.120;8.660;2023-04-07T13:41:34;8.53;;;6.70;;
13114;SDS011;6623;52.120;8.660;2023-04-07T13:43:59;7.17;;;6.20;;
13114;SDS011;6623;52.120;8.660;2023-04-07T13:46:25;8.60;;;6.60;;
13114;SDS011;6623;52.120;8.660;2023-04-07T13:48:51;11.47;;;6.97;;
13114;SDS011;6623;52.120;8.660;2023-04-07T13:51:17;12.17;;;6.07;;
13114;SDS011;6623;52.120;8.660;2023-04-07T13:53:42;8.80;;;6.97;;
13114;SDS011;6623;52.120;8.660;2023-04-07T13:56:08;8.53;;;6.80;;
13114;SDS011;6623;52.120;8.660;2023-04-07T13:58:34;11.27;;;6.87;;
13114;SDS011;6623;52.120;8.660;2023-04-07T14:01:00;7.03;;;5.70;;
13114;SDS011;6623;52.120;8.660;2023-04-07T14:03:26;8.87;;;6.67;;
13114;SDS011;6623;52.120;8.660;2023-04-07T14:05:52;7.13;;;6.30;;
13114;SDS011;6623;52.120;8.660;2023-04-07T14:08:19;8.80;;;6.37;;
13114;SDS011;6623;52.120;8.660;2023-04-07T14:10:47;8.17;;;6.70;;
13114;SDS011;6623;52.120;8.660;2023-04-07T14:13:13;8.30;;;7.13;;
13114;SDS011;6623;52.120;8.660;2023-04-07T14:15:38;9.60;;;7.73;;
13114;SDS011;6623;52.120;8.660;2023-04-07T14:18:04;10.03;;;6.90;;
13114;SDS011;6623;52.120;8.660;2023-04-07T14:20:30;7.60;;;6.53;;
13114;SDS011;6623;52.120;8.660;2023-04-07T14:22:57;7.83;;;6.67;;
13114;SDS011;6623;52.120;8.660;2023-04-07T14:25:22;7.53;;;6.50;;
13114;SDS011;6623;52.120;8.660;2023-04-07T14:27:48;9.27;;;6.77;;
13114;SDS011;6623;52.120;8.660;2023-04-07T14:30:13;9.83;;;6.87;;
13114;SDS011;6623;52.120;8.660;2023-04-07T14:32:39;10.53;;;7.97;;
13114;SDS011;6623;52.120;8.660;2023-04-07T14:35:05;10.20;;;7.20;;
13114;SDS011;6623;52.120;8.660;2023-04-07T14:37:30;9.97;;;7.10;;
13114;SDS011;6623;52.120;8.660;2023-04-07T14:39:56;9.73;;;6.70;;
13114;SDS011;6623;52.120;8.660;2023-04-07T14:42:22;8.90;;;7.07;;
13114;SDS011;6623;52.120;8.660;2023-04-07T14:44:48;8.43;;;7.03;;
13114;SDS011;6623;52.120;8.660;2023-04-07T14:47:13;8.47;;;7.13;;
13114;SDS011;6623;52.120;8.660;2023-04-07T14:49:39;8.97;;;7.07;;
13114;SDS011;6623;52.120;8.660;2023-04-07T14:52:05;7.70;;;6.90;;
13114;SDS011;6623;52.120;8.660;2023-04-07T14:54:31;10.57;;;7.10;;
13114;SDS011;6623;52.120;8.660;2023-04-07T14:56:56;11.33;;;7.50;;
13114;SDS011;6623;52.120;8.660;2023-04-07T14:59:22;10.70;;;8.17;;
13114;SDS011;6623;52.120;8.660;2023-04-07T15:01:48;8.80;;;7.27;;
13114;SDS011;6623;52.120;8.660;2023-04-07T15:04:13;10.13;;;6.67;;
13114;SDS011;6623;52.120;8.660;2023-04-07T15:06:42;10.50;;;7.43;;
13114;SDS011;6623;52.120;8.660;2023-04-07T15:09:07;9.57;;;6.93;;
13114;SDS011;6623;52.120;8.660;2023-04-07T15:11:33;9.43;;;7.07;;
13114;SDS011;6623;52.120;8.660;2023-04-07T15:13:58;8.80;;;7.43;;